Waterford, California
Current Conditions -  °F | °C
As of 12:53 PM on Saturday 25 Oct 2014 (Local Time) from KMOD Reporting Station
Light Rain Light Rain  
Wind Chill: 61°   Ceiling: 8500
Heat Index: 61°   Visibility: 7mi
Dew Point: 57°   Wind: 6mph
Humidity: 87%   Direction: 130°SE
Pressure: 30.08"   Gusts: NA
Location:  37.64°N, 120.76°W
Report Text: KMOD 251953Z 13005KT 7SM -RA SCT065 OVC085 16/14 A3008 RMK AO2 RAB07 SLP185 P0003 T01610139
Loading
Personal Weather Stations






























Interactive Weather Map
Tropical Storm Tracking
New forecast layout! Learn more

10-Day Weather Forecast

Advertisements
Track Severe Weather on mobile